Time;durP1;ratioP1;P1;durP2;ratioP2;P2;SDS_P1;SDS_P2;PMS_P1;PMS_P2;Temp;Humidity;BMP_temperature;BMP_pressure;BME280_temperature;BME280_humidity;BME280_pressure;Samples;Min_cycle;Max_cycle;Signal;HPM_P1;HPM_P2
2022/09/20 00:00:45;;;;;;;10.10;4.70;;;;;;;10.99;100.00;102186.34;5027575;28;20021;-65
2022/09/20 00:03:12;;;;;;;9.20;4.03;;;;;;;11.00;100.00;102193.34;5027730;28;20072;-65
2022/09/20 00:05:39;;;;;;;10.40;4.75;;;;;;;11.02;100.00;102191.72;5027142;28;20485;-65
2022/09/20 00:08:09;;;;;;;5.45;4.30;;;;;;;11.03;100.00;102193.50;5027433;28;20029;-65
2022/09/20 00:10:38;;;;;;;7.70;4.38;;;;;;;11.04;100.00;102191.78;5028055;28;20025;-64
2022/09/20 00:13:05;;;;;;;8.45;4.97;;;;;;;11.04;100.00;102196.97;5028101;28;20032;-65
2022/09/20 00:15:31;;;;;;;6.88;4.63;;;;;;;11.05;100.00;102191.88;5028130;28;20018;-65
2022/09/20 00:17:57;;;;;;;7.47;4.88;;;;;;;11.05;100.00;102196.16;5027617;28;20527;-65
2022/09/20 00:20:23;;;;;;;10.68;5.00;;;;;;;11.02;100.00;102189.13;5027101;28;20087;-64
2022/09/20 00:22:48;;;;;;;8.77;5.10;;;;;;;10.98;100.00;102184.59;5027248;28;20033;-65
2022/09/20 00:25:15;;;;;;;8.20;4.55;;;;;;;10.95;100.00;102184.44;5027739;28;20021;-64
2022/09/20 00:27:40;;;;;;;7.50;4.70;;;;;;;10.91;100.00;102183.38;5027436;28;20088;-66
2022/09/20 00:30:06;;;;;;;9.13;5.25;;;;;;;10.87;100.00;102176.25;5027101;28;20030;-66
2022/09/20 00:32:31;;;;;;;9.77;4.75;;;;;;;10.84;100.00;102182.97;5027199;28;20025;-67
2022/09/20 00:35:12;;;;;;;9.23;5.47;;;;;;;10.83;100.00;102181.19;5027073;28;20499;-66
2022/09/20 00:37:39;;;;;;;9.93;5.30;;;;;;;10.83;100.00;102184.66;5027240;28;20041;-67
2022/09/20 00:40:08;;;;;;;8.15;5.85;;;;;;;10.80;100.00;102188.00;5027316;28;20029;-67
2022/09/20 00:42:34;;;;;;;7.03;5.22;;;;;;;10.80;100.00;102190.59;5026457;28;20386;-67
2022/09/20 00:45:00;;;;;;;9.98;4.97;;;;;;;10.80;100.00;102181.91;5026803;28;20036;-66
2022/09/20 00:47:31;;;;;;;10.48;5.53;;;;;;;10.83;100.00;102199.34;5027123;28;20496;-66
2022/09/20 00:50:16;;;;;;;;;;;;;;;10.83;100.00;102194.16;5027342;28;20025;-65
2022/09/20 00:52:46;;;;;;;10.60;4.97;;;;;;;10.84;100.00;102191.66;5015984;28;20112;-65
2022/09/20 00:55:12;;;;;;;7.60;4.63;;;;;;;10.84;100.00;102190.75;5026673;28;20025;-64
2022/09/20 00:57:38;;;;;;;6.75;5.32;;;;;;;10.82;100.00;102193.25;5026961;28;20469;-64
2022/09/20 01:00:07;;;;;;;10.35;4.93;;;;;;;10.81;100.00;102197.53;5026694;28;20448;-67
2022/09/20 01:02:35;;;;;;;9.80;4.68;;;;;;;10.81;100.00;102191.50;5026842;28;20029;-67
2022/09/20 01:05:00;;;;;;;8.30;4.95;;;;;;;10.82;100.00;102188.06;5026695;28;20025;-64
2022/09/20 01:07:26;;;;;;;8.57;4.55;;;;;;;10.83;100.00;102188.97;5027266;28;20462;-65
2022/09/20 01:09:51;;;;;;;8.48;4.55;;;;;;;10.84;100.00;102185.56;5026930;28;20029;-65
2022/09/20 01:12:20;;;;;;;8.48;4.70;;;;;;;10.86;100.00;102191.72;5027572;28;20017;-64
2022/09/20 01:14:49;;;;;;;8.73;5.07;;;;;;;10.84;100.00;102186.47;5026115;28;20021;-64
2022/09/20 01:17:18;;;;;;;10.00;5.50;;;;;;;10.83;100.00;102187.25;5026676;28;20164;-64
2022/09/20 01:19:50;;;;;;;7.50;4.50;;;;;;;10.81;100.00;102194.97;5026839;28;20026;-64
2022/09/20 01:22:39;;;;;;;8.48;4.53;;;;;;;10.80;100.00;102185.41;5026721;28;20117;-64
2022/09/20 01:25:37;;;;;;;9.68;4.15;;;;;;;10.78;100.00;102184.44;5026540;28;20029;-64
2022/09/20 01:28:03;;;;;;;10.82;5.38;;;;;;;10.75;100.00;102185.97;5026783;28;20384;-64
2022/09/20 01:30:39;;;;;;;8.98;4.35;;;;;;;10.74;100.00;102184.19;5026969;28;20482;-64
2022/09/20 01:33:33;;;;;;;9.50;4.95;;;;;;;10.73;100.00;102193.66;5026391;28;20060;-64
2022/09/20 01:36:03;;;;;;;7.72;5.13;;;;;;;10.73;100.00;102191.06;5026135;28;20107;-64
2022/09/20 01:39:11;;;;;;;8.00;4.68;;;;;;;10.75;100.00;102180.78;5013757;28;20458;-65
2022/09/20 01:41:49;;;;;;;5.82;3.88;;;;;;;10.77;100.00;102190.44;4968177;28;20069;-64
2022/09/20 01:44:26;;;;;;;9.70;4.65;;;;;;;10.77;100.00;102187.84;5012323;28;20392;-64
2022/09/20 01:47:01;;;;;;;9.52;4.75;;;;;;;10.77;100.00;102189.53;5029971;28;20033;-64
2022/09/20 01:49:39;;;;;;;7.97;5.22;;;;;;;10.75;100.00;102197.25;5013153;28;20513;-64
2022/09/20 01:52:41;;;;;;;9.10;4.97;;;;;;;10.72;100.00;102189.28;5030066;28;20032;-65
2022/09/20 01:55:27;;;;;;;7.50;4.45;;;;;;;10.69;100.00;102183.94;5029713;28;20116;-64
2022/09/20 01:58:23;;;;;;;4.20;3.78;;;;;;;10.70;100.00;102196.09;5030660;28;20359;-64
2022/09/20 02:01:12;;;;;;;9.82;4.75;;;;;;;10.69;100.00;102196.91;5030148;28;20025;-64
2022/09/20 02:03:50;;;;;;;8.95;4.97;;;;;;;10.69;100.00;102196.91;5030178;28;20355;-64
2022/09/20 02:06:43;;;;;;;6.95;4.38;;;;;;;10.69;100.00;102190.03;5029094;28;20036;-64
2022/09/20 02:09:11;;;;;;;11.35;4.97;;;;;;;10.68;100.00;102195.13;5029525;28;20044;-64
2022/09/20 02:11:58;;;;;;;12.50;4.57;;;;;;;10.66;100.00;102191.56;5029767;28;20033;-64
2022/09/20 02:14:29;;;;;;;6.47;4.85;;;;;;;10.66;100.00;102188.97;5029636;28;20044;-64
2022/09/20 02:16:56;;;;;;;8.73;4.72;;;;;;;10.65;100.00;102193.25;5028833;28;20048;-64
2022/09/20 02:20:03;;;;;;;9.77;4.00;;;;;;;10.66;100.00;102191.56;5029765;28;20374;-64
2022/09/20 02:22:40;;;;;;;7.57;4.63;;;;;;;10.66;100.00;102192.47;4968125;28;20078;-64
2022/09/20 02:25:22;;;;;;;8.23;4.53;;;;;;;10.68;100.00;102189.94;4968004;28;20113;-64
2022/09/20 02:28:26;;;;;;;11.80;4.78;;;;;;;10.66;100.00;102186.38;5009230;28;20033;-64
2022/09/20 02:31:09;;;;;;;8.55;4.70;;;;;;;10.68;100.00;102189.94;5029597;28;20037;-64
2022/09/20 02:34:08;;;;;;;9.93;4.75;;;;;;;10.66;100.00;102183.78;5029337;28;20041;-64
2022/09/20 02:36:59;;;;;;;12.35;4.93;;;;;;;10.64;100.00;102177.63;5029136;28;20030;-64
2022/09/20 02:39:35;;;;;;;9.10;4.40;;;;;;;10.61;100.00;102182.66;4987898;28;20069;-64
2022/09/20 02:42:10;;;;;;;13.30;5.43;;;;;;;10.61;100.00;102182.66;5029522;28;20045;-64
2022/09/20 02:44:47;;;;;;;8.57;4.50;;;;;;;10.61;100.00;102177.47;5028752;28;20033;-64
2022/09/20 02:47:34;;;;;;;8.88;4.57;;;;;;;10.61;100.00;102183.56;5028909;28;20103;-64
2022/09/20 02:50:27;;;;;;;9.40;4.60;;;;;;;10.63;100.00;102187.09;5028751;28;20413;-64
2022/09/20 02:53:30;;;;;;;5.25;4.30;;;;;;;10.64;100.00;102188.00;5028947;28;20033;-64
2022/09/20 02:56:03;;;;;;;9.90;4.57;;;;;;;10.66;100.00;102186.38;5028978;28;20512;-64
2022/09/20 02:58:43;;;;;;;7.97;4.15;;;;;;;10.66;100.00;102192.47;5029171;28;20030;-65
2022/09/20 03:01:17;;;;;;;10.60;4.43;;;;;;;10.67;100.00;102188.13;5028110;28;20036;-64
2022/09/20 03:04:02;;;;;;;6.97;4.00;;;;;;;10.66;100.00;102186.38;5028908;28;20637;-64
2022/09/20 03:06:49;;;;;;;9.18;4.38;;;;;;;10.66;100.00;102181.19;5029028;28;20362;-64
2022/09/20 03:09:37;;;;;;;6.22;4.25;;;;;;;10.66;100.00;102181.19;5029000;28;20112;-64
2022/09/20 03:12:27;;;;;;;7.03;3.88;;;;;;;10.67;100.00;102177.78;5028717;28;20108;-64
2022/09/20 03:15:07;;;;;;;8.75;4.28;;;;;;;10.67;100.00;102172.59;5028977;28;20044;-64
2022/09/20 03:17:41;;;;;;;7.43;3.70;;;;;;;10.67;100.00;102172.59;5028562;28;20452;-64
2022/09/20 03:20:44;;;;;;;7.13;3.75;;;;;;;10.68;100.00;102184.75;5028551;28;20025;-64
2022/09/20 03:23:40;;;;;;;5.35;3.70;;;;;;;10.69;100.00;102181.34;5028854;28;20025;-64
2022/09/20 03:26:36;;;;;;;5.97;4.00;;;;;;;10.70;100.00;102180.56;5027805;28;20292;-64
2022/09/20 03:29:21;;;;;;;7.63;3.92;;;;;;;10.70;100.00;102183.16;5028506;28;20492;-64
2022/09/20 03:32:25;;;;;;;14.25;4.32;;;;;;;10.71;100.00;102177.13;5027984;28;20025;-64
2022/09/20 03:35:07;;;;;;;6.88;4.10;;;;;;;10.70;100.00;102172.78;5027982;28;20032;-64
2022/09/20 03:37:44;;;;;;;7.05;3.92;;;;;;;10.69;100.00;102179.66;5028191;28;20041;-64
2022/09/20 03:40:35;;;;;;;6.93;4.35;;;;;;;10.69;100.00;102170.97;5028252;28;20028;-64
2022/09/20 03:43:23;;;;;;;7.45;4.03;;;;;;;10.70;100.00;102177.97;5027732;28;20041;-65
2022/09/20 03:46:16;;;;;;;8.52;4.35;;;;;;;10.70;100.00;102183.16;5027949;28;20555;-64
2022/09/20 03:49:03;;;;;;;7.30;3.97;;;;;;;10.71;100.00;102182.31;5027961;28;20389;-64
2022/09/20 03:51:44;;;;;;;8.77;4.78;;;;;;;10.71;100.00;102184.91;5027965;28;20106;-64
2022/09/20 03:54:37;;;;;;;7.70;4.07;;;;;;;10.72;100.00;102183.22;5027003;28;20159;-64
2022/09/20 03:57:22;;;;;;;10.43;4.75;;;;;;;10.72;100.00;102178.91;5027755;28;20021;-64
2022/09/20 03:59:55;;;;;;;7.68;4.55;;;;;;;10.74;100.00;102185.06;5027918;28;20064;-64
2022/09/20 04:02:58;;;;;;;9.82;4.72;;;;;;;10.75;100.00;102181.69;5039772;28;20469;-64
2022/09/20 04:05:37;;;;;;;7.65;4.95;;;;;;;10.76;100.00;102178.25;5027232;28;20025;-64
2022/09/20 04:08:24;;;;;;;12.95;5.35;;;;;;;10.76;100.00;102177.38;5026278;28;20466;-64
2022/09/20 04:10:59;;;;;;;10.70;5.07;;;;;;;10.73;100.00;102172.94;5040226;28;20037;-64
2022/09/20 04:13:35;;;;;;;9.10;4.75;;;;;;;10.71;100.00;102169.34;5015812;28;20409;-64
2022/09/20 04:16:13;;;;;;;9.18;4.82;;;;;;;10.72;100.00;102176.31;5027002;28;20029;-64
2022/09/20 04:18:56;;;;;;;9.60;4.97;;;;;;;10.72;100.00;102178.91;5027617;28;20075;-64
2022/09/20 04:21:58;;;;;;;9.40;5.50;;;;;;;10.72;100.00;102180.63;5027131;28;20065;-64
2022/09/20 04:24:39;;;;;;;8.75;4.57;;;;;;;10.73;100.00;102170.34;4926408;29;20167;-64
2022/09/20 04:27:22;;;;;;;10.53;4.73;;;;;;;10.74;100.00;102177.28;5016935;28;20134;-64
2022/09/20 04:30:04;;;;;;;6.78;4.07;;;;;;;10.74;100.00;102174.69;5026296;28;20399;-64
2022/09/20 04:32:58;;;;;;;8.20;4.40;;;;;;;10.76;100.00;102177.38;5026534;28;20060;-64
2022/09/20 04:36:29;;;;;;;10.13;4.53;;;;;;;10.77;100.00;102177.47;5026538;28;20454;-64
2022/09/20 04:39:22;;;;;;;7.32;4.85;;;;;;;10.78;100.00;102170.56;5019284;28;20041;-64
2022/09/20 04:42:33;;;;;;;6.35;4.18;;;;;;;10.79;100.00;102173.22;5026576;28;20132;-65
2022/09/20 04:45:25;;;;;;;7.28;4.50;;;;;;;10.77;100.00;102168.78;5020846;28;20045;-64
2022/09/20 04:48:12;;;;;;;8.18;4.68;;;;;;;10.76;100.00;102173.09;5026954;28;20520;-65
2022/09/20 04:51:12;;;;;;;8.15;4.65;;;;;;;10.77;100.00;102185.25;5035066;28;20118;-64
2022/09/20 04:54:02;;;;;;;6.63;4.55;;;;;;;10.76;100.00;102186.03;5027348;28;20493;-64
2022/09/20 04:56:52;;;;;;;9.82;4.82;;;;;;;10.74;100.00;102190.25;5029717;28;20028;-64
2022/09/20 04:59:37;;;;;;;10.35;5.20;;;;;;;10.72;100.00;102189.28;5028614;28;20381;-64
2022/09/20 05:02:23;;;;;;;7.88;4.13;;;;;;;10.71;100.00;102189.19;5019975;28;20423;-65
2022/09/20 05:05:10;;;;;;;5.97;4.50;;;;;;;10.70;100.00;102198.69;5026094;28;20035;-65
2022/09/20 05:08:17;;;;;;;8.68;5.03;;;;;;;10.70;100.00;102196.09;5026612;28;20026;-65
2022/09/20 05:11:16;;;;;;;10.27;4.50;;;;;;;10.71;100.00;102199.56;5007338;28;20041;-64
2022/09/20 05:14:01;;;;;;;8.05;4.55;;;;;;;10.72;100.00;102199.66;5043899;28;20044;-65
2022/09/20 05:16:29;;;;;;;7.57;5.10;;;;;;;10.72;100.00;102197.06;5043576;28;20048;-65
2022/09/20 05:19:13;;;;;;;6.03;5.13;;;;;;;10.72;100.00;102207.44;5044295;28;20021;-65
2022/09/20 05:22:05;;;;;;;8.45;5.03;;;;;;;10.72;100.00;102206.56;5043116;28;20104;-65
2022/09/20 05:24:45;;;;;;;;;;;;;;;10.72;100.00;102211.75;5033547;28;20045;-64
2022/09/20 05:27:59;;;;;;;5.78;4.82;;;;;;;10.71;100.00;102209.94;5045166;28;19917;-65
2022/09/20 05:30:48;;;;;;;8.13;5.35;;;;;;;10.71;100.00;102220.31;5031258;28;20048;-65
2022/09/20 05:33:53;;;;;;;5.82;4.75;;;;;;;10.67;100.00;102208.88;5046637;28;20452;-65
2022/09/20 05:36:55;;;;;;;7.65;4.90;;;;;;;10.68;100.00;102221.06;5045892;28;20104;-65
2022/09/20 05:39:33;;;;;;;8.35;5.15;;;;;;;10.67;100.00;102219.25;5012552;28;20025;-65
2022/09/20 05:42:10;;;;;;;9.20;4.97;;;;;;;10.66;100.00;102218.38;5033057;28;20413;-65
2022/09/20 05:45:22;;;;;;;11.40;5.45;;;;;;;10.67;100.00;102229.63;5030590;28;20060;-65
2022/09/20 05:48:23;;;;;;;;;;;;;;;10.67;100.00;102227.03;5015685;28;20451;-63
2022/09/20 05:51:21;;;;;;;15.00;5.90;;;;;;;10.68;100.00;102228.84;4969944;28;19922;-63
2022/09/20 05:53:57;;;;;;;10.23;5.40;;;;;;;10.70;100.00;102227.22;5017329;28;20096;-63
2022/09/20 05:56:46;;;;;;;10.05;5.32;;;;;;;10.70;100.00;102229.81;5029985;28;20033;-63
2022/09/20 05:59:56;;;;;;;11.65;5.35;;;;;;;10.75;100.00;102238.72;5030176;28;20060;-63
2022/09/20 06:02:32;;;;;;;9.10;6.20;;;;;;;10.78;100.00;102228.50;5028959;28;20109;-63
2022/09/20 06:05:06;;;;;;;6.97;4.97;;;;;;;10.85;100.00;102239.22;5028271;28;20025;-63
2022/09/20 06:07:56;;;;;;;5.85;5.00;;;;;;;10.91;100.00;102236.94;5028121;28;20112;-63
2022/09/20 06:10:49;;;;;;;7.18;4.60;;;;;;;10.95;100.00;102246.69;5027380;28;20064;-63
2022/09/20 06:13:23;;;;;;;5.97;4.80;;;;;;;11.00;100.00;102245.22;5028470;28;20033;-63
2022/09/20 06:15:48;;;;;;;7.55;5.07;;;;;;;11.04;100.00;102251.47;5028212;28;20068;-63
2022/09/20 06:18:37;;;;;;;6.57;4.45;;;;;;;11.07;100.00;102250.72;5028208;28;20393;-64
2022/09/20 06:21:27;;;;;;;6.03;4.80;;;;;;;11.08;100.00;102253.38;5027945;28;20044;-63
2022/09/20 06:23:58;;;;;;;7.57;4.53;;;;;;;11.06;100.00;102255.03;5028814;28;20033;-63
2022/09/20 06:26:28;;;;;;;5.97;4.55;;;;;;;11.07;100.00;102262.00;5027532;28;20025;-63
2022/09/20 06:28:57;;;;;;;8.35;4.70;;;;;;;11.09;100.00;102259.47;5028280;28;20148;-63
2022/09/20 06:31:22;;;;;;;5.07;4.35;;;;;;;11.08;100.00;102248.19;5025944;28;20057;-63
2022/09/20 06:34:06;;;;;;;8.93;5.20;;;;;;;11.11;100.00;102247.47;5036548;28;20119;-64
2022/09/20 06:42:29;;;;;;;7.35;4.40;;;;;;;11.17;100.00;102253.88;5028710;28;20473;-63
2022/09/20 06:44:55;;;;;;;7.88;4.18;;;;;;;11.20;100.00;102257.44;5025045;28;20041;-63
2022/09/20 06:47:21;;;;;;;6.78;4.18;;;;;;;11.24;100.00;102259.41;5029551;28;20018;-63
2022/09/20 06:49:49;;;;;;;7.13;3.88;;;;;;;11.26;100.00;102257.78;5029210;28;20098;-63
2022/09/20 06:52:16;;;;;;;4.35;3.72;;;;;;;11.27;100.00;102265.63;5028263;28;20033;-63
2022/09/20 06:54:47;;;;;;;6.53;4.10;;;;;;;11.33;100.00;102258.97;5035056;28;20029;-63
2022/09/20 06:57:15;;;;;;;7.72;4.00;;;;;;;11.36;100.00;102267.81;5028778;28;20014;-63
2022/09/20 06:59:41;;;;;;;6.55;4.25;;;;;;;11.42;100.00;102267.25;5028726;28;20147;-63
2022/09/20 07:02:07;;;;;;;4.55;3.58;;;;;;;11.52;100.00;102266.00;5028657;28;20136;-63
2022/09/20 07:04:33;;;;;;;5.38;3.83;;;;;;;11.57;100.00;102263.63;5028160;28;20401;-63
2022/09/20 07:07:00;;;;;;;4.22;3.70;;;;;;;11.60;100.00;102266.41;5028999;28;20029;-63
2022/09/20 07:09:25;;;;;;;5.15;3.95;;;;;;;11.64;100.00;102270.91;5028645;28;20048;-63
2022/09/20 07:11:50;;;;;;;4.30;3.70;;;;;;;11.67;100.00;102262.41;5028606;28;20522;-63
2022/09/20 07:14:18;;;;;;;5.70;3.47;;;;;;;11.68;100.00;102261.56;5028688;28;20041;-63
2022/09/20 07:16:43;;;;;;;6.72;3.55;;;;;;;11.71;100.00;102264.34;5033710;28;20064;-63
2022/09/20 07:19:08;;;;;;;5.30;3.55;;;;;;;11.72;100.00;102259.22;5035318;28;20599;-63
2022/09/20 07:21:33;;;;;;;6.45;3.90;;;;;;;11.74;100.00;102262.78;5038518;28;20035;-63
2022/09/20 07:24:00;;;;;;;6.90;3.58;;;;;;;11.78;100.00;102256.03;5028269;28;20029;-63
2022/09/20 07:26:29;;;;;;;4.57;3.50;;;;;;;11.85;100.00;102265.03;5027925;28;20041;-63
2022/09/20 07:28:55;;;;;;;3.92;3.38;;;;;;;11.96;100.00;102263.81;5027559;28;20117;-63
2022/09/20 07:31:23;;;;;;;7.22;4.20;;;;;;;12.18;100.00;102259.72;5027710;28;20033;-63
2022/09/20 07:33:48;;;;;;;3.90;3.38;;;;;;;12.61;100.00;102259.94;5027965;28;20108;-63
2022/09/20 07:36:15;;;;;;;4.75;3.80;;;;;;;12.79;100.00;102259.03;5026873;28;20455;-63
2022/09/20 07:38:42;;;;;;;5.97;3.72;;;;;;;12.91;100.00;102264.78;5028040;28;20029;-63
2022/09/20 07:41:08;;;;;;;8.00;4.63;;;;;;;13.05;100.00;102274.91;5027959;28;20382;-63
2022/09/20 07:43:34;;;;;;;4.63;3.30;;;;;;;13.09;100.00;102282.94;5027819;28;20061;-63
2022/09/20 07:45:59;;;;;;;5.85;3.47;;;;;;;13.14;100.00;102279.63;5028562;28;20029;-63
2022/09/20 07:48:33;;;;;;;6.47;3.63;;;;;;;13.19;100.00;102284.22;5028221;28;20036;-63
2022/09/20 07:51:09;;;;;;;5.22;3.88;;;;;;;13.53;100.00;102278.72;5027994;28;20075;-63
2022/09/20 07:53:35;;;;;;;5.88;3.58;;;;;;;13.86;100.00;102286.19;5027957;28;20025;-64
2022/09/20 07:56:05;;;;;;;6.47;3.67;;;;;;;14.24;100.00;102288.59;5027812;28;20019;-64
2022/09/20 07:58:33;;;;;;;5.15;2.60;;;;;;;14.45;100.00;102287.66;5027845;28;20053;-63
2022/09/20 08:01:01;;;;;;;3.55;2.90;;;;;;;14.52;100.00;102299.22;5027385;28;20348;-64
2022/09/20 08:03:32;;;;;;;7.70;3.67;;;;;;;14.50;100.00;102291.31;5027684;28;20037;-64
2022/09/20 08:06:03;;;;;;;6.00;2.75;;;;;;;14.77;100.00;102293.22;5027375;28;20018;-64
2022/09/20 08:08:37;;;;;;;6.75;2.80;;;;;;;15.25;100.00;102293.22;5027166;28;20105;-65
2022/09/20 08:11:08;;;;;;;5.72;2.78;;;;;;;15.87;99.21;102293.53;5027965;28;20018;-65
2022/09/20 08:13:42;;;;;;;7.68;2.85;;;;;;;16.44;95.94;102298.00;5028049;28;20177;-65
2022/09/20 08:16:10;;;;;;;7.55;2.72;;;;;;;17.01;91.73;102295.31;5027335;28;20029;-65
2022/09/20 08:18:36;;;;;;;6.10;2.60;;;;;;;17.48;87.86;102287.84;5027608;28;20436;-65
2022/09/20 08:21:07;;;;;;;6.00;2.53;;;;;;;17.76;84.90;102296.41;5027118;28;20480;-65
2022/09/20 08:23:34;;;;;;;2.97;2.08;;;;;;;18.08;82.49;102293.69;5027747;28;20039;-64
2022/09/20 08:25:59;;;;;;;8.00;2.00;;;;;;;18.34;79.29;102295.19;5027741;28;20032;-64
2022/09/20 08:28:24;;;;;;;5.07;2.38;;;;;;;18.51;77.74;102294.69;5027628;28;20029;-64
2022/09/20 08:30:50;;;;;;;3.30;1.95;;;;;;;18.68;77.61;102295.94;5027494;28;20296;-65
2022/09/20 08:33:15;;;;;;;4.68;1.77;;;;;;;18.88;75.36;102292.81;5027320;28;20127;-65
2022/09/20 08:35:40;;;;;;;5.65;2.67;;;;;;;18.99;73.29;102292.16;5027140;28;20453;-65
2022/09/20 08:38:06;;;;;;;4.80;1.77;;;;;;;19.15;72.81;102296.00;5027237;28;20032;-64
2022/09/20 08:40:32;;;;;;;4.22;1.80;;;;;;;19.27;69.94;102290.06;5026800;28;20120;-64
2022/09/20 08:42:59;;;;;;;3.92;1.40;;;;;;;19.47;70.00;102297.44;5026452;28;20084;-64
2022/09/20 08:45:25;;;;;;;2.20;1.35;;;;;;;19.43;68.82;102300.03;5024696;28;20044;-64
2022/09/20 08:47:57;;;;;;;5.25;1.35;;;;;;;19.61;66.49;102306.47;5024386;28;20031;-65
2022/09/20 08:50:23;;;;;;;2.15;1.30;;;;;;;19.55;67.54;102306.38;5027080;28;20076;-64
2022/09/20 08:52:54;;;;;;;2.65;1.10;;;;;;;19.43;65.91;102312.28;5026367;28;20049;-65
2022/09/20 08:55:31;;;;;;;5.15;1.30;;;;;;;19.42;66.25;102321.91;5009251;28;20045;-65
2022/09/20 08:57:59;;;;;;;5.18;1.42;;;;;;;19.55;64.17;102311.63;5026037;28;20029;-65
2022/09/20 09:00:29;;;;;;;4.78;1.38;;;;;;;19.60;63.35;102320.47;5026851;28;20040;-66
2022/09/20 09:02:57;;;;;;;5.80;1.20;;;;;;;19.56;63.63;102313.38;5021070;28;20013;-65
2022/09/20 09:05:36;;;;;;;3.20;1.20;;;;;;;19.63;64.06;102317.00;5026519;28;20485;-65
2022/09/20 09:08:09;;;;;;;4.28;1.20;;;;;;;19.59;64.62;102313.44;5024473;28;20235;-65
2022/09/20 09:10:38;;;;;;;3.42;0.88;;;;;;;19.48;64.08;102317.63;5026411;28;20117;-66
2022/09/20 09:13:05;;;;;;;2.60;0.77;;;;;;;19.45;63.20;102318.44;5026701;28;20021;-65
2022/09/20 09:15:36;;;;;;;2.53;0.77;;;;;;;19.43;64.43;102312.28;5026936;28;20397;-66
2022/09/20 09:18:04;;;;;;;3.67;1.05;;;;;;;19.47;64.33;102316.72;5026392;28;20028;-66
2022/09/20 09:20:40;;;;;;;2.60;0.60;;;;;;;19.25;63.01;102308.44;5026745;28;20461;-66
2022/09/20 09:23:07;;;;;;;4.25;0.60;;;;;;;19.38;61.56;102317.47;5025529;28;20034;-65
2022/09/20 09:25:37;;;;;;;4.15;0.80;;;;;;;19.03;62.78;102315.88;5027117;28;20036;-65
2022/09/20 09:28:06;;;;;;;7.78;1.02;;;;;;;18.77;63.87;102316.22;5026549;28;20132;-65
2022/09/20 09:30:39;;;;;;;3.55;0.80;;;;;;;18.57;63.16;102313.16;5026454;28;20503;-65
2022/09/20 09:33:14;;;;;;;4.18;0.77;;;;;;;18.28;64.19;102310.75;5025745;28;20017;-65
2022/09/20 09:35:39;;;;;;;4.40;0.80;;;;;;;18.05;65.20;102311.09;5025161;28;20040;-66
2022/09/20 09:38:16;;;;;;;4.90;1.17;;;;;;;17.90;66.17;102315.09;5025610;28;20389;-65
2022/09/20 09:40:56;;;;;;;4.85;0.77;;;;;;;17.63;67.51;102310.94;5029055;28;20081;-66
2022/09/20 09:43:28;;;;;;;3.67;0.88;;;;;;;17.52;67.32;102308.91;5031813;28;20124;-65
2022/09/20 09:45:56;;;;;;;1.98;0.50;;;;;;;17.46;66.72;102318.34;5023960;28;20025;-65
2022/09/20 09:48:23;;;;;;;4.57;1.40;;;;;;;17.43;68.65;102319.16;5025135;28;20109;-64
2022/09/20 09:50:48;;;;;;;5.03;0.73;;;;;;;17.30;66.75;102317.06;5025229;28;20569;-64
2022/09/20 09:53:21;;;;;;;3.00;0.60;;;;;;;17.10;68.14;102319.97;5024806;28;20025;-65
2022/09/20 09:56:10;;;;;;;4.20;0.77;;;;;;;17.03;70.23;102319.81;5026865;28;20053;-64
2022/09/20 09:59:01;;;;;;;2.97;0.65;;;;;;;16.91;70.39;102325.56;5017654;28;20110;-65
2022/09/20 10:01:47;;;;;;;3.50;0.80;;;;;;;16.83;70.19;102331.41;5026558;28;20032;-65
2022/09/20 10:04:39;;;;;;;3.42;0.80;;;;;;;16.70;71.84;102325.81;5028508;28;20029;-66
2022/09/20 10:07:08;;;;;;;5.63;0.77;;;;;;;16.59;72.49;102325.47;5029722;28;20025;-66
2022/09/20 10:09:45;;;;;;;5.50;0.82;;;;;;;16.52;72.10;102331.38;5029427;28;20014;-65
2022/09/20 10:12:25;;;;;;;3.78;1.05;;;;;;;16.41;72.69;102325.78;5026482;28;20040;-65
2022/09/20 10:15:31;;;;;;;7.95;1.20;;;;;;;16.27;74.49;102326.25;5018358;28;20378;-66
2022/09/20 10:18:17;;;;;;;4.95;0.82;;;;;;;16.25;76.21;102327.94;5026468;28;20385;-65
2022/09/20 10:21:07;;;;;;;2.38;0.70;;;;;;;16.15;74.00;102320.63;5029089;28;20129;-65
2022/09/20 10:23:44;;;;;;;6.47;1.00;;;;;;;16.11;75.72;102318.75;5021665;28;20087;-65
2022/09/20 10:26:21;;;;;;;8.15;1.13;;;;;;;16.06;75.61;102326.47;5029632;28;20485;-65
2022/09/20 10:28:49;;;;;;;5.13;0.80;;;;;;;16.04;75.82;102322.91;5029065;28;20099;-65
2022/09/20 10:31:44;;;;;;;3.28;0.70;;;;;;;15.98;73.27;102328.78;5029352;28;20099;-65
2022/09/20 10:34:17;;;;;;;4.68;1.10;;;;;;;15.99;74.54;102330.56;5029083;28;20096;-65
2022/09/20 10:36:59;;;;;;;4.63;0.70;;;;;;;16.01;75.47;102323.69;5027394;28;20025;-65
2022/09/20 10:39:32;;;;;;;5.38;0.90;;;;;;;16.06;76.28;102316.00;5027535;28;20465;-66
2022/09/20 10:45:16;;;;;;;3.42;0.68;;;;;;;16.07;78.60;102323.00;5027638;28;20083;-65
2022/09/20 10:47:55;;;;;;;5.57;1.25;;;;;;;16.14;78.98;102321.47;5027031;28;20024;-64
2022/09/20 10:50:47;;;;;;;4.45;1.00;;;;;;;16.17;76.82;102324.19;5026525;28;20313;-64
2022/09/20 10:53:36;;;;;;;5.38;1.20;;;;;;;16.16;77.77;102323.31;5027036;28;20029;-64
2022/09/20 10:56:35;;;;;;;2.67;1.02;;;;;;;16.23;77.47;102328.72;5024856;28;20140;-64
2022/09/20 10:59:07;;;;;;;3.58;0.90;;;;;;;16.28;76.34;102322.78;5035631;28;20037;-64
2022/09/20 11:01:56;;;;;;;2.55;0.77;;;;;;;16.36;77.77;102325.66;5028488;28;20028;-64
2022/09/20 11:05:07;;;;;;;4.22;1.17;;;;;;;16.43;77.29;102321.50;5026716;28;20039;-64
2022/09/20 11:08:10;;;;;;;5.60;1.10;;;;;;;16.43;75.75;102326.75;5027325;28;20018;-64
2022/09/20 11:10:54;;;;;;;3.92;0.80;;;;;;;16.39;75.39;102330.09;5027942;28;20040;-64
2022/09/20 11:13:32;;;;;;;4.13;1.13;;;;;;;16.28;74.92;102328.03;5028674;28;20800;-64
2022/09/20 11:16:12;;;;;;;4.15;0.82;;;;;;;16.24;75.57;102328.78;5028624;28;20025;-64
2022/09/20 11:18:50;;;;;;;3.22;0.80;;;;;;;16.18;73.93;102329.47;5028467;28;20112;-64
2022/09/20 11:21:26;;;;;;;3.17;0.60;;;;;;;16.14;76.14;102339.75;5027944;28;20025;-64
2022/09/20 11:24:04;;;;;;;1.75;0.55;;;;;;;16.26;76.50;102337.53;5028286;28;20032;-64
2022/09/20 11:26:45;;;;;;;3.42;0.80;;;;;;;16.52;75.84;102334.88;5027068;28;20101;-64
2022/09/20 11:29:25;;;;;;;5.43;1.00;;;;;;;16.65;71.59;102336.16;5033001;28;20029;-64
2022/09/20 11:31:54;;;;;;;4.27;0.90;;;;;;;16.61;70.63;102342.13;5024680;28;20481;-64
2022/09/20 11:34:32;;;;;;;3.17;0.70;;;;;;;16.50;69.80;102341.78;5027548;28;20099;-64
2022/09/20 11:37:02;;;;;;;4.13;0.82;;;;;;;16.37;69.87;102347.50;5025761;28;20481;-64
2022/09/20 11:39:50;;;;;;;3.60;0.85;;;;;;;16.21;70.87;102346.97;5032538;28;20017;-64
2022/09/20 11:42:19;;;;;;;4.50;0.80;;;;;;;16.14;70.85;102334.53;5033636;28;20065;-64
2022/09/20 11:44:45;;;;;;;4.47;0.80;;;;;;;16.13;72.23;102353.69;5028408;28;20033;-64
2022/09/20 11:47:22;;;;;;;4.22;0.80;;;;;;;16.11;73.16;102350.13;5027238;28;20025;-64
2022/09/20 11:50:17;;;;;;;2.45;0.70;;;;;;;16.12;73.65;102354.53;5024750;28;20277;-64
2022/09/20 11:53:02;;;;;;;3.53;1.00;;;;;;;16.10;73.93;102344.00;5024868;28;20112;-64
2022/09/20 11:55:47;;;;;;;3.67;1.00;;;;;;;16.09;72.13;102355.31;5040755;28;20068;-65
2022/09/20 11:58:15;;;;;;;2.40;0.93;;;;;;;16.00;72.82;102355.91;5031196;28;20093;-65
2022/09/20 12:00:43;;;;;;;2.17;0.63;;;;;;;15.94;73.49;102356.53;5031742;28;20059;-64
2022/09/20 12:03:24;;;;;;;2.90;0.73;;;;;;;15.91;74.76;102358.16;5026526;28;20025;-64
2022/09/20 12:06:01;;;;;;;3.72;0.50;;;;;;;15.85;73.99;102356.22;5027179;28;20037;-64
2022/09/20 12:08:32;;;;;;;2.70;0.70;;;;;;;15.83;75.16;102360.53;5025756;28;20474;-64
2022/09/20 12:11:07;;;;;;;3.50;0.68;;;;;;;15.79;75.72;102372.59;5026809;28;20037;-64
2022/09/20 12:13:35;;;;;;;2.28;0.63;;;;;;;15.72;75.53;102358.41;5026689;28;20868;-65
2022/09/20 12:16:05;;;;;;;2.47;0.60;;;;;;;15.64;76.95;102361.59;5026320;28;20029;-65
2022/09/20 12:18:37;;;;;;;3.83;0.80;;;;;;;15.57;76.67;102364.00;5026727;28;20029;-65